createdAt,value
2023-04-29T00:01:58.876Z,15.93
2023-04-29T00:04:26.720Z,15.76
2023-04-29T00:06:54.274Z,15.46
2023-04-29T00:09:22.601Z,15.21
2023-04-29T00:11:50.431Z,15.58
2023-04-29T00:14:19.170Z,15.13
2023-04-29T00:16:46.879Z,15.58
2023-04-29T00:19:14.301Z,15.88
2023-04-29T00:21:41.698Z,15.97
2023-04-29T00:24:09.095Z,15.95
2023-04-29T00:26:36.489Z,15.97
2023-04-29T00:29:03.913Z,16.03
2023-04-29T00:31:32.987Z,15.97
2023-04-29T00:34:00.752Z,16.08
2023-04-29T00:36:28.392Z,16.09
2023-04-29T00:38:55.784Z,15.72
2023-04-29T00:41:23.187Z,15.95
2023-04-29T00:43:50.697Z,15.94
2023-04-29T00:46:18.248Z,15.97
2023-04-29T00:48:46.992Z,15.88
2023-04-29T00:51:14.901Z,15.49
2023-04-29T00:53:42.868Z,15.76
2023-04-29T00:56:11.405Z,15.96
2023-04-29T00:58:39.154Z,15.60
2023-04-29T01:01:07.227Z,15.82
2023-04-29T01:03:34.703Z,15.33
2023-04-29T01:06:10.053Z,14.58
2023-04-29T01:08:46.292Z,14.82
2023-04-29T01:11:14.654Z,15.04
2023-04-29T01:13:47.093Z,15.42
2023-04-29T01:16:23.864Z,15.44
2023-04-29T01:18:56.315Z,15.38
2023-04-29T01:21:25.968Z,15.28
2023-04-29T01:23:56.398Z,15.18
2023-04-29T01:26:24.429Z,15.00
2023-04-29T01:28:58.603Z,15.03
2023-04-29T01:31:31.979Z,15.24
2023-04-29T01:34:07.894Z,14.42
2023-04-29T01:36:46.184Z,13.43
2023-04-29T01:39:20.358Z,14.09
2023-04-29T01:41:54.660Z,14.83
2023-04-29T01:44:25.572Z,14.99
2023-04-29T01:46:54.845Z,15.14
2023-04-29T01:49:22.485Z,15.06
2023-04-29T01:51:49.847Z,14.87
2023-04-29T01:54:18.668Z,15.13
2023-04-29T01:56:47.033Z,14.76
2023-04-29T01:59:14.607Z,13.66
2023-04-29T02:01:42.121Z,14.58
2023-04-29T02:04:09.582Z,14.94
2023-04-29T02:06:36.996Z,14.81
2023-04-29T02:09:04.528Z,14.71
2023-04-29T02:11:33.246Z,15.05
2023-04-29T02:14:00.763Z,15.08
2023-04-29T02:16:28.173Z,14.96
2023-04-29T02:18:55.569Z,14.58
2023-04-29T02:21:22.988Z,14.12
2023-04-29T02:23:50.394Z,14.55
2023-04-29T02:26:17.963Z,14.46
2023-04-29T02:28:47.241Z,14.80
2023-04-29T02:31:14.665Z,14.53
2023-04-29T02:33:42.113Z,14.68
2023-04-29T02:36:09.653Z,14.86
2023-04-29T02:38:37.053Z,15.04
2023-04-29T02:41:04.440Z,14.22
2023-04-29T02:43:31.892Z,14.93
2023-04-29T02:46:01.108Z,15.00
2023-04-29T02:48:28.641Z,15.00
2023-04-29T02:50:56.098Z,14.75
2023-04-29T02:53:23.490Z,15.08
2023-04-29T02:55:51.057Z,15.11
2023-04-29T02:58:18.533Z,15.03
2023-04-29T03:00:45.996Z,15.12
2023-04-29T03:03:14.908Z,15.12
2023-04-29T03:05:42.473Z,15.14
2023-04-29T03:08:10.619Z,14.96
2023-04-29T03:10:41.246Z,14.69
2023-04-29T03:13:09.205Z,14.91
2023-04-29T03:15:36.762Z,14.97
2023-04-29T03:18:05.048Z,15.14
2023-04-29T03:20:33.831Z,13.80
2023-04-29T03:23:02.213Z,14.02
2023-04-29T03:25:30.135Z,13.71
2023-04-29T03:27:57.555Z,14.43
2023-04-29T03:30:24.970Z,14.87
2023-04-29T03:32:52.430Z,14.83
2023-04-29T03:35:20.029Z,14.45
2023-04-29T03:37:48.761Z,14.69
2023-04-29T03:40:16.439Z,14.65
2023-04-29T03:42:43.870Z,14.84
2023-04-29T03:45:13.107Z,14.46
2023-04-29T03:47:40.764Z,14.86
2023-04-29T03:50:09.136Z,14.45
2023-04-29T03:52:37.389Z,14.66
2023-04-29T03:55:07.247Z,14.74
2023-04-29T03:57:34.646Z,14.74
2023-04-29T04:00:02.042Z,14.71
2023-04-29T04:02:29.667Z,14.86
2023-04-29T04:04:58.981Z,14.91
2023-04-29T04:07:26.405Z,14.44
2023-04-29T04:09:54.283Z,14.14
2023-04-29T04:12:23.260Z,14.71
2023-04-29T04:14:51.271Z,15.00
2023-04-29T04:17:18.642Z,14.78
2023-04-29T04:19:46.097Z,14.87
2023-04-29T04:22:13.650Z,14.97
2023-04-29T04:24:41.100Z,15.07
2023-04-29T04:27:08.726Z,15.15
2023-04-29T04:29:37.420Z,14.83
2023-04-29T04:32:05.251Z,14.72
2023-04-29T04:34:32.858Z,15.00
2023-04-29T04:37:00.270Z,15.17
2023-04-29T04:39:27.648Z,15.21
2023-04-29T04:41:55.092Z,15.06
2023-04-29T04:44:23.265Z,14.90
2023-04-29T04:46:52.815Z,15.24
2023-04-29T04:49:20.331Z,15.06
2023-04-29T04:51:47.763Z,14.73
2023-04-29T04:54:15.155Z,14.97
2023-04-29T04:56:42.591Z,15.17
2023-04-29T04:59:10.005Z,15.27
2023-04-29T05:01:37.543Z,15.38
2023-04-29T05:04:06.762Z,15.20
2023-04-29T05:06:34.341Z,15.28
2023-04-29T05:09:01.760Z,15.21
2023-04-29T05:11:29.292Z,15.25
2023-04-29T05:13:56.670Z,15.30
2023-04-29T05:16:24.091Z,15.02
2023-04-29T05:18:51.502Z,15.09
2023-04-29T05:21:20.210Z,15.08
2023-04-29T05:23:47.630Z,15.27
2023-04-29T05:26:14.999Z,15.29
2023-04-29T05:28:42.446Z,15.41
2023-04-29T05:31:09.925Z,15.44
2023-04-29T05:33:37.388Z,15.44
2023-04-29T05:36:05.146Z,15.41
2023-04-29T05:38:33.841Z,15.50
2023-04-29T05:41:01.335Z,15.65
2023-04-29T05:43:28.804Z,15.57
2023-04-29T05:45:56.813Z,15.63
2023-04-29T05:48:24.771Z,15.70
2023-04-29T05:50:52.212Z,15.56
2023-04-29T05:53:19.577Z,15.74
2023-04-29T05:55:51.234Z,15.65
2023-04-29T05:58:19.011Z,15.55
2023-04-29T06:00:46.681Z,15.56
2023-04-29T06:03:14.215Z,15.40
2023-04-29T06:05:42.013Z,15.56
2023-04-29T06:08:10.611Z,15.46
2023-04-29T06:10:38.027Z,15.53
2023-04-29T06:13:06.778Z,15.57
2023-04-29T06:15:34.254Z,15.71
2023-04-29T06:18:01.676Z,15.63
2023-04-29T06:20:29.081Z,15.69
2023-04-29T06:22:56.509Z,15.78
2023-04-29T06:25:24.123Z,15.48
2023-04-29T06:27:51.507Z,14.97
2023-04-29T06:30:20.852Z,15.04
2023-04-29T06:32:48.315Z,14.72
2023-04-29T06:35:16.082Z,14.17
2023-04-29T06:37:43.502Z,14.02
2023-04-29T06:40:12.253Z,13.98
2023-04-29T06:42:39.739Z,13.97
2023-04-29T06:45:08.452Z,14.10
2023-04-29T06:47:37.221Z,14.32
2023-04-29T06:50:05.135Z,14.07
2023-04-29T06:52:33.373Z,14.69
2023-04-29T06:55:00.830Z,14.33
2023-04-29T06:57:28.298Z,14.23
2023-04-29T06:59:55.995Z,14.16
2023-04-29T07:02:23.456Z,13.18
2023-04-29T07:04:52.544Z,13.11
2023-04-29T07:07:20.136Z,12.95
2023-04-29T07:09:48.671Z,12.76
2023-04-29T07:12:16.042Z,12.98
2023-04-29T07:14:43.447Z,13.35
2023-04-29T07:17:13.380Z,12.94
2023-04-29T07:19:41.578Z,13.07
2023-04-29T07:22:10.574Z,12.50
2023-04-29T07:24:38.224Z,12.49
2023-04-29T07:27:05.598Z,12.60
2023-04-29T07:29:34.161Z,12.97
2023-04-29T07:32:01.567Z,12.55
2023-04-29T07:34:28.966Z,12.50
2023-04-29T07:36:57.275Z,12.39
2023-04-29T07:39:26.212Z,12.78
2023-04-29T07:41:53.591Z,12.98
2023-04-29T07:44:22.090Z,13.35
2023-04-29T07:46:49.694Z,13.45
2023-04-29T07:49:17.106Z,12.90
2023-04-29T07:51:44.842Z,12.70
2023-04-29T07:54:12.353Z,12.91
2023-04-29T07:56:41.089Z,12.34
2023-04-29T07:59:08.522Z,12.66
2023-04-29T08:01:35.920Z,12.36
2023-04-29T08:04:03.489Z,12.54
2023-04-29T08:06:30.971Z,12.00
2023-04-29T08:08:58.392Z,12.27
2023-04-29T08:11:26.947Z,12.55
2023-04-29T08:13:57.219Z,12.37
2023-04-29T08:16:26.138Z,12.25
2023-04-29T08:18:59.789Z,12.25
2023-04-29T08:21:33.658Z,12.22
2023-04-29T08:24:05.356Z,12.25
2023-04-29T08:26:33.978Z,12.57
2023-04-29T08:29:09.588Z,12.51
2023-04-29T08:31:37.437Z,12.82
2023-04-29T08:34:21.300Z,12.64
2023-04-29T08:36:58.228Z,12.31
2023-04-29T08:39:31.520Z,12.53
2023-04-29T08:42:00.597Z,12.60
2023-04-29T08:44:51.646Z,12.60
2023-04-29T08:47:24.768Z,12.65
2023-04-29T08:49:57.092Z,12.63
2023-04-29T08:52:35.402Z,12.51
2023-04-29T08:55:06.847Z,12.55
2023-04-29T08:57:54.288Z,14.03
2023-04-29T09:00:29.173Z,14.40
2023-04-29T09:03:05.553Z,15.34
2023-04-29T09:05:46.748Z,14.90
2023-04-29T09:08:19.525Z,14.88
2023-04-29T09:10:55.653Z,14.26
2023-04-29T09:13:31.836Z,15.30
2023-04-29T09:16:01.743Z,15.37
2023-04-29T09:18:51.953Z,15.15
2023-04-29T09:21:22.794Z,13.64
2023-04-29T09:24:02.357Z,12.69
2023-04-29T09:26:45.762Z,12.07
2023-04-29T09:29:21.480Z,12.43
2023-04-29T09:31:54.868Z,12.39
2023-04-29T09:34:34.454Z,12.01
2023-04-29T09:37:10.815Z,11.85
2023-04-29T09:39:47.155Z,11.61
2023-04-29T09:42:15.960Z,11.87
2023-04-29T09:44:45.648Z,11.66
2023-04-29T09:47:15.292Z,11.61
2023-04-29T09:49:56.220Z,11.63
2023-04-29T09:52:24.978Z,11.48
2023-04-29T09:55:09.640Z,11.58
2023-04-29T09:57:45.663Z,11.51
2023-04-29T10:00:19.177Z,11.43
2023-04-29T10:02:51.334Z,11.45
2023-04-29T10:05:21.053Z,11.85
2023-04-29T10:07:51.592Z,11.91
2023-04-29T10:10:22.567Z,11.85
2023-04-29T10:12:54.531Z,12.46
2023-04-29T10:15:33.815Z,11.60
2023-04-29T10:18:18.311Z,11.67
2023-04-29T10:20:49.000Z,11.85
2023-04-29T10:23:19.205Z,12.31
2023-04-29T10:25:55.877Z,12.54
2023-04-29T10:28:37.378Z,12.33
2023-04-29T10:31:10.615Z,11.95
2023-04-29T10:34:05.901Z,11.79
2023-04-29T10:36:46.148Z,12.06
2023-04-29T10:39:28.884Z,12.09
2023-04-29T10:42:00.001Z,12.03
2023-04-29T10:44:36.056Z,12.20
2023-04-29T10:47:28.286Z,12.24
2023-04-29T10:50:11.419Z,12.05
2023-04-29T10:52:56.096Z,11.98
2023-04-29T10:55:30.008Z,12.26
2023-04-29T10:58:00.802Z,12.62
2023-04-29T11:00:29.825Z,12.88
2023-04-29T11:03:00.084Z,12.75
2023-04-29T11:05:36.512Z,12.79
2023-04-29T11:08:15.844Z,12.90
2023-04-29T11:10:51.453Z,13.26
2023-04-29T11:13:30.930Z,12.63
2023-04-29T11:16:07.387Z,12.62
2023-04-29T11:18:41.217Z,13.32
2023-04-29T11:21:18.613Z,13.27
2023-04-29T11:23:53.510Z,13.25
2023-04-29T11:26:21.893Z,13.82
2023-04-29T11:28:54.044Z,13.79
2023-04-29T11:31:25.383Z,13.61
2023-04-29T11:33:56.686Z,13.58
2023-04-29T11:36:33.456Z,13.48
2023-04-29T11:39:09.424Z,13.38
2023-04-29T11:41:43.656Z,13.62
2023-04-29T11:44:14.164Z,13.33
2023-04-29T11:46:50.469Z,13.59
2023-04-29T11:49:20.292Z,13.62
2023-04-29T11:52:01.664Z,14.21
2023-04-29T11:54:35.387Z,13.98
2023-04-29T11:57:05.899Z,14.19
2023-04-29T11:59:34.059Z,14.57
2023-04-29T12:02:11.229Z,14.39
2023-04-29T12:04:47.865Z,13.97
2023-04-29T12:07:23.534Z,13.78
2023-04-29T12:09:52.109Z,13.89
2023-04-29T12:12:24.269Z,14.17
2023-04-29T12:14:56.010Z,13.42
2023-04-29T12:17:27.750Z,13.49
2023-04-29T12:19:57.360Z,13.81
2023-04-29T12:22:32.845Z,13.65
2023-04-29T12:25:02.221Z,13.39
2023-04-29T12:27:32.921Z,13.92
2023-04-29T12:30:08.637Z,13.74
2023-04-29T12:32:39.594Z,13.99
2023-04-29T12:35:22.139Z,14.16
2023-04-29T12:37:53.775Z,14.12
2023-04-29T12:40:23.239Z,14.07
2023-04-29T12:42:52.128Z,13.97
2023-04-29T12:45:31.245Z,14.14
2023-04-29T12:48:01.154Z,13.97
2023-04-29T12:50:33.197Z,13.64
2023-04-29T12:53:04.183Z,13.95
2023-04-29T12:55:36.104Z,14.05
2023-04-29T12:58:12.708Z,14.14
2023-04-29T13:00:40.986Z,14.51
2023-04-29T13:03:12.499Z,14.20
2023-04-29T13:05:43.929Z,14.60
2023-04-29T13:08:19.472Z,14.64
2023-04-29T13:10:47.827Z,14.43
2023-04-29T13:13:16.508Z,14.83
2023-04-29T13:15:45.282Z,15.09
2023-04-29T13:18:15.505Z,14.59
2023-04-29T13:23:17.392Z,15.15
2023-04-29T13:25:57.368Z,14.48
2023-04-29T13:28:28.468Z,14.51
2023-04-29T13:33:56.186Z,14.11
2023-04-29T13:36:24.745Z,14.19
2023-04-29T13:38:55.691Z,14.04
2023-04-29T13:41:26.008Z,14.72
2023-04-29T13:43:58.563Z,14.65
2023-04-29T13:46:26.235Z,14.65
2023-04-29T13:52:09.568Z,14.52
2023-04-29T13:54:53.338Z,14.37
2023-04-29T13:57:37.255Z,14.08
2023-04-29T13:59:52.196Z,14.13
2023-04-29T14:04:51.689Z,14.12
2023-04-29T14:07:19.294Z,14.21
2023-04-29T14:09:49.295Z,14.17
2023-04-29T14:12:16.749Z,14.47
2023-04-29T14:14:44.237Z,14.68
2023-04-29T14:17:11.645Z,14.50
2023-04-29T14:19:39.091Z,14.30
2023-04-29T14:22:06.487Z,14.39
2023-04-29T14:24:33.945Z,14.80
2023-04-29T14:27:03.305Z,14.94
2023-04-29T14:29:30.845Z,14.63
2023-04-29T14:31:58.268Z,15.36
2023-04-29T14:34:25.740Z,15.25
2023-04-29T14:36:53.183Z,14.92
2023-04-29T14:39:20.655Z,14.89
2023-04-29T14:41:48.727Z,15.37
2023-04-29T14:44:17.612Z,15.45
2023-04-29T14:46:45.138Z,15.97
2023-04-29T14:49:12.798Z,15.42
2023-04-29T14:51:40.355Z,14.78
2023-04-29T14:54:09.108Z,15.21
2023-04-29T14:56:37.835Z,15.09
2023-04-29T14:59:07.250Z,15.32
2023-04-29T15:01:36.647Z,15.22
2023-04-29T15:04:05.605Z,15.41
2023-04-29T15:06:33.252Z,15.46
2023-04-29T15:09:01.116Z,15.19
2023-04-29T15:11:28.547Z,15.34
2023-04-29T15:13:56.470Z,14.98
2023-04-29T15:16:24.040Z,15.07
2023-04-29T15:18:52.784Z,15.15
2023-04-29T15:21:20.985Z,14.91
2023-04-29T15:23:48.598Z,14.91
2023-04-29T15:26:16.034Z,15.00
2023-04-29T15:28:45.698Z,14.87
2023-04-29T15:31:13.556Z,15.10
2023-04-29T15:33:41.160Z,15.22
2023-04-29T15:36:09.922Z,15.36
2023-04-29T15:38:37.315Z,15.96
2023-04-29T15:41:04.971Z,15.95
2023-04-29T15:43:33.440Z,15.71
2023-04-29T15:46:00.984Z,16.26
2023-04-29T15:48:28.406Z,16.49
2023-04-29T15:50:56.142Z,15.77
2023-04-29T15:53:24.906Z,16.48
2023-04-29T15:55:52.348Z,16.41
2023-04-29T15:58:19.749Z,15.91
2023-04-29T16:00:47.255Z,15.78
2023-04-29T16:03:14.848Z,16.30
2023-04-29T16:05:42.461Z,15.90
2023-04-29T16:08:10.072Z,16.35
2023-04-29T16:10:38.816Z,16.58
2023-04-29T16:13:06.352Z,16.09
2023-04-29T16:15:33.845Z,16.42
2023-04-29T16:18:01.732Z,17.09
2023-04-29T16:20:29.294Z,16.90
2023-04-29T16:22:56.693Z,16.58
2023-04-29T16:25:24.097Z,15.86
2023-04-29T16:27:52.830Z,16.52
2023-04-29T16:30:20.234Z,16.86
2023-04-29T16:32:47.666Z,16.24
2023-04-29T16:35:15.180Z,16.57
2023-04-29T16:37:42.569Z,17.08
2023-04-29T16:40:11.292Z,16.36
2023-04-29T16:42:38.720Z,16.45
2023-04-29T16:45:09.423Z,16.85
2023-04-29T16:47:37.587Z,17.05
2023-04-29T16:50:08.168Z,16.21
2023-04-29T16:52:35.598Z,15.90
2023-04-29T16:55:03.684Z,15.99
2023-04-29T16:57:31.921Z,15.86
2023-04-29T16:59:59.404Z,15.76
2023-04-29T17:02:28.801Z,15.68
2023-04-29T17:04:56.436Z,15.47
2023-04-29T17:07:24.122Z,15.56
2023-04-29T17:09:52.292Z,15.29
2023-04-29T17:12:19.858Z,15.48
2023-04-29T17:14:48.362Z,15.28
2023-04-29T17:17:15.827Z,15.19
2023-04-29T17:19:45.206Z,15.32
2023-04-29T17:22:12.586Z,15.39
2023-04-29T17:24:39.964Z,15.26
2023-04-29T17:27:07.353Z,15.27
2023-04-29T17:29:34.760Z,15.15
2023-04-29T17:32:09.490Z,15.33
2023-04-29T17:34:37.431Z,15.25
2023-04-29T17:37:06.535Z,15.33
2023-04-29T17:39:34.595Z,15.35
2023-04-29T17:42:02.121Z,15.31
2023-04-29T17:44:29.554Z,15.57
2023-04-29T17:46:57.020Z,15.17
2023-04-29T17:49:24.926Z,15.32
2023-04-29T17:51:52.665Z,15.30
2023-04-29T17:54:21.465Z,15.12
2023-04-29T17:56:49.041Z,14.97
2023-04-29T17:59:16.509Z,14.95
2023-04-29T18:01:44.009Z,15.07
2023-04-29T18:04:12.121Z,14.92
2023-04-29T18:06:39.718Z,15.30
2023-04-29T18:09:07.337Z,15.24
2023-04-29T18:11:36.598Z,14.83
2023-04-29T18:14:04.811Z,14.81
2023-04-29T18:16:32.302Z,15.09
2023-04-29T18:18:59.838Z,14.95
2023-04-29T18:21:28.723Z,15.03
2023-04-29T18:23:56.721Z,15.22
2023-04-29T18:26:24.721Z,14.75
2023-04-29T18:28:53.575Z,15.05
2023-04-29T18:31:23.188Z,14.91
2023-04-29T18:33:50.654Z,15.22
2023-04-29T18:36:21.075Z,15.17
2023-04-29T18:38:48.614Z,15.24
2023-04-29T18:41:16.237Z,14.98
2023-04-29T18:43:43.655Z,15.25
2023-04-29T18:46:12.465Z,15.04
2023-04-29T18:48:40.600Z,15.10
2023-04-29T18:51:08.032Z,15.28
2023-04-29T18:53:35.482Z,14.78
2023-04-29T18:56:03.367Z,14.86
2023-04-29T18:58:30.804Z,15.11
2023-04-29T19:00:59.938Z,14.97
2023-04-29T19:03:29.041Z,14.92
2023-04-29T19:05:56.957Z,15.40
2023-04-29T19:08:24.500Z,15.50
2023-04-29T19:10:53.435Z,15.33
2023-04-29T19:13:21.267Z,15.45
2023-04-29T19:15:50.651Z,14.78
2023-04-29T19:18:19.971Z,15.33
2023-04-29T19:20:48.958Z,15.63
2023-04-29T19:23:16.700Z,15.61
2023-04-29T19:25:44.145Z,15.66
2023-04-29T19:28:11.589Z,15.32
2023-04-29T19:30:39.062Z,15.26
2023-04-29T19:33:08.398Z,15.48
2023-04-29T19:35:35.867Z,15.34
2023-04-29T19:38:07.504Z,15.40
2023-04-29T19:40:35.070Z,15.31
2023-04-29T19:43:03.188Z,15.45
2023-04-29T19:45:30.603Z,15.38
2023-04-29T19:48:01.836Z,15.05
2023-04-29T19:50:29.391Z,15.45
2023-04-29T19:52:57.108Z,14.88
2023-04-29T19:55:26.489Z,15.20
2023-04-29T19:57:53.976Z,15.11
2023-04-29T20:00:21.540Z,14.86
2023-04-29T20:02:51.402Z,15.09
2023-04-29T20:05:19.653Z,15.13
2023-04-29T20:07:50.037Z,14.94
2023-04-29T20:10:17.489Z,14.96
2023-04-29T20:12:46.650Z,14.64
2023-04-29T20:15:14.161Z,15.19
2023-04-29T20:17:41.709Z,14.67
2023-04-29T20:20:10.343Z,14.46
2023-04-29T20:22:41.079Z,14.56
2023-04-29T20:25:08.907Z,14.89
2023-04-29T20:27:36.581Z,14.91
2023-04-29T20:30:06.695Z,14.92
2023-04-29T20:32:34.228Z,14.88
2023-04-29T20:35:01.697Z,14.81
2023-04-29T20:37:29.368Z,14.84
2023-04-29T20:39:56.871Z,14.72
2023-04-29T20:42:24.333Z,14.85
2023-04-29T20:44:51.944Z,14.91
2023-04-29T20:47:21.350Z,14.63
2023-04-29T20:49:49.564Z,14.71
2023-04-29T20:52:17.375Z,14.40
2023-04-29T20:54:45.203Z,14.38
2023-04-29T20:57:12.634Z,14.18
2023-04-29T20:59:40.097Z,14.37
2023-04-29T21:02:08.110Z,14.49
2023-04-29T21:04:37.010Z,14.44
2023-04-29T21:07:07.017Z,14.52
2023-04-29T21:09:35.873Z,14.60
2023-04-29T21:12:05.276Z,14.45
2023-04-29T21:14:32.789Z,14.51
2023-04-29T21:17:00.462Z,14.34
2023-04-29T21:19:28.258Z,14.19
2023-04-29T21:21:57.015Z,13.64
2023-04-29T21:24:24.519Z,13.35
2023-04-29T21:26:51.985Z,13.07
2023-04-29T21:29:20.203Z,12.97
2023-04-29T21:31:47.773Z,12.88
2023-04-29T21:34:15.356Z,12.53
2023-04-29T21:36:42.825Z,12.54
2023-04-29T21:39:11.815Z,12.07
2023-04-29T21:41:40.113Z,11.95
2023-04-29T21:44:08.343Z,11.90
2023-04-29T21:46:37.017Z,12.32
2023-04-29T21:49:04.858Z,11.86
2023-04-29T21:51:32.683Z,11.69
2023-04-29T21:54:00.388Z,11.65
2023-04-29T21:56:29.205Z,11.75
2023-04-29T21:58:56.695Z,11.61
2023-04-29T22:01:39.627Z,11.97
2023-04-29T22:04:07.487Z,11.66
2023-04-29T22:06:35.235Z,11.87
2023-04-29T22:09:02.882Z,12.44
2023-04-29T22:11:31.752Z,13.73
2023-04-29T22:13:59.263Z,14.12
2023-04-29T22:16:26.857Z,13.81
2023-04-29T22:18:54.651Z,13.77
2023-04-29T22:21:22.269Z,13.52
2023-04-29T22:23:50.215Z,14.47
2023-04-29T22:26:18.562Z,11.97
2023-04-29T22:28:47.333Z,11.68
2023-04-29T22:31:14.763Z,11.22
2023-04-29T22:33:42.229Z,11.53
2023-04-29T22:36:09.698Z,10.94
2023-04-29T22:38:37.843Z,11.30
2023-04-29T22:41:05.813Z,11.08
2023-04-29T22:43:33.248Z,11.31
2023-04-29T22:46:02.135Z,11.22
2023-04-29T22:48:29.699Z,10.89
2023-04-29T22:50:59.710Z,10.56
2023-04-29T22:53:27.514Z,10.59
2023-04-29T22:55:56.398Z,10.83
2023-04-29T22:58:25.757Z,10.32
2023-04-29T23:00:55.922Z,10.22
2023-04-29T23:03:25.425Z,10.27
2023-04-29T23:05:54.946Z,10.60
2023-04-29T23:08:22.418Z,10.44
2023-04-29T23:10:50.295Z,10.33
2023-04-29T23:13:18.607Z,10.22
2023-04-29T23:15:46.420Z,10.20
2023-04-29T23:18:14.027Z,10.03
2023-04-29T23:20:42.904Z,10.36
2023-04-29T23:23:10.415Z,10.18
2023-04-29T23:25:37.819Z,9.91
2023-04-29T23:28:05.481Z,10.20
2023-04-29T23:30:33.084Z,10.14
2023-04-29T23:33:00.770Z,9.87
2023-04-29T23:35:28.199Z,10.03
2023-04-29T23:37:56.944Z,9.81
2023-04-29T23:40:24.432Z,10.01
2023-04-29T23:42:51.858Z,9.68
2023-04-29T23:45:19.299Z,9.70
2023-04-29T23:47:46.793Z,9.67
2023-04-29T23:50:14.254Z,9.67
2023-04-29T23:52:41.702Z,9.59
2023-04-29T23:55:11.305Z,9.69
2023-04-29T23:57:38.773Z,9.94
